Time;durP1;ratioP1;P1;durP2;ratioP2;P2;SDS_P1;SDS_P2;PMS_P1;PMS_P2;Temp;Humidity;BMP_temperature;BMP_pressure;BME280_temperature;BME280_humidity;BME280_pressure;Samples;Min_cycle;Max_cycle;Signal;HPM_P1;HPM_P2
2024/03/28 00:00:58;;;;;;;;;2.25;2.00;;;;;10.96;61.08;97536.47;5056688;28;45509;-62
2024/03/28 00:03:25;;;;;;;;;1.00;1.00;;;;;10.97;61.14;97535.50;5051420;28;45566;-62
2024/03/28 00:05:55;;;;;;;;;1.00;1.00;;;;;10.99;61.25;97540.59;5057648;28;45582;-62
2024/03/28 00:08:21;;;;;;;;;3.00;1.50;;;;;11.03;61.20;97547.28;5057955;28;45707;-62
2024/03/28 00:10:50;;;;;;;;;3.00;2.75;;;;;11.06;61.21;97559.28;5053150;28;45421;-62
2024/03/28 00:13:16;;;;;;;;;3.00;2.00;;;;;11.07;60.92;97572.22;5049044;28;45377;-62
2024/03/28 00:15:42;;;;;;;;;2.00;2.00;;;;;11.08;60.73;97567.81;5040736;28;45423;-62
2024/03/28 00:18:07;;;;;;;;;2.00;1.25;;;;;11.13;60.80;97570.91;5058111;28;46058;-61
2024/03/28 00:20:33;;;;;;;;;2.50;2.50;;;;;11.11;61.30;97578.06;5059617;28;45391;-63
2024/03/28 00:22:59;;;;;;;;;2.00;2.00;;;;;11.14;61.91;97564.72;5056085;27;45289;-63
2024/03/28 00:25:24;;;;;;;;;1.75;1.75;;;;;11.12;62.24;97564.84;5053115;28;45565;-62
2024/03/28 00:27:50;;;;;;;;;1.25;1.25;;;;;11.12;62.68;97571.84;5053176;28;74505;-62
2024/03/28 00:30:15;;;;;;;;;2.50;1.50;;;;;11.09;62.56;97565.09;5055444;27;45349;-63
2024/03/28 00:32:41;;;;;;;;;1.25;1.25;;;;;11.02;63.13;97572.59;5056001;28;45529;-63
2024/03/28 00:35:06;;;;;;;;;3.50;1.00;;;;;10.98;64.16;97572.97;5043772;28;65556;-62
2024/03/28 00:37:32;;;;;;;;;3.00;1.00;;;;;10.89;64.54;97561.44;5050606;28;46302;-63
2024/03/28 00:39:57;;;;;;;;;2.25;1.00;;;;;10.81;65.27;97554.19;5032117;28;45482;-63
2024/03/28 00:42:22;;;;;;;;;0.00;0.00;;;;;10.78;65.82;97545.75;5035981;28;61031;-62
2024/03/28 00:44:47;;;;;;;;;0.00;0.00;;;;;10.75;66.50;97556.50;5073941;28;73718;-62
2024/03/28 00:47:13;;;;;;;;;2.00;1.25;;;;;10.67;66.98;97544.00;5045870;28;45482;-63
2024/03/28 00:49:38;;;;;;;;;2.00;2.00;;;;;10.65;67.35;97556.38;5050350;28;69597;-63
2024/03/28 00:52:04;;;;;;;;;1.00;1.00;;;;;10.60;67.45;97538.41;5046105;28;67013;-63
2024/03/28 00:54:29;;;;;;;;;1.25;1.00;;;;;10.54;67.39;97538.06;5048866;28;45555;-62
2024/03/28 00:56:54;;;;;;;;;1.00;1.00;;;;;10.46;68.00;97525.59;5057367;28;46341;-62
2024/03/28 00:59:19;;;;;;;;;3.25;1.00;;;;;10.44;68.61;97530.09;5056608;28;58723;-63
2024/03/28 01:01:45;;;;;;;;;2.00;1.00;;;;;10.42;68.58;97525.00;5047991;28;66629;-63
2024/03/28 01:04:10;;;;;;;;;2.00;1.00;;;;;10.39;69.03;97524.41;5047343;28;66774;-62
2024/03/28 01:06:35;;;;;;;;;2.00;2.00;;;;;10.37;69.20;97515.84;5052967;28;59002;-62
2024/03/28 01:09:01;;;;;;;;;5.50;3.00;;;;;10.31;69.90;97516.31;5048889;28;62712;-62
2024/03/28 01:11:26;;;;;;;;;4.50;2.75;;;;;10.25;71.58;97496.69;5056952;28;55982;-63
2024/03/28 01:13:52;;;;;;;;;1.75;1.75;;;;;10.23;70.79;97462.00;5054352;28;45178;-64
2024/03/28 01:16:17;;;;;;;;;2.00;2.00;;;;;10.18;71.13;97456.31;5069323;28;74076;-63
2024/03/28 01:18:42;;;;;;;;;1.00;1.00;;;;;10.11;71.18;97460.34;5055616;28;45448;-63
2024/03/28 01:21:08;;;;;;;;;1.00;1.00;;;;;10.07;71.01;97447.56;5059398;28;45364;-63
2024/03/28 01:23:33;;;;;;;;;1.00;1.00;;;;;10.04;71.17;97466.06;5056284;28;55716;-62
2024/03/28 01:26:02;;;;;;;;;2.00;1.00;;;;;10.04;71.29;97453.00;5057142;28;45488;-63
2024/03/28 01:28:28;;;;;;;;;2.00;0.00;;;;;10.03;71.79;97474.84;5050886;28;45427;-63
2024/03/28 01:31:01;;;;;;;;;3.00;1.00;;;;;10.06;72.03;97476.41;5052133;28;69443;-63
2024/03/28 01:33:27;;;;;;;;;2.25;1.00;;;;;10.04;71.67;97473.91;5073904;27;45393;-63
2024/03/28 01:35:52;;;;;;;;;1.00;1.00;;;;;10.05;71.97;97475.56;5054310;28;45433;-62
2024/03/28 01:38:18;;;;;;;;;3.50;2.00;;;;;10.07;72.35;97464.97;5046648;28;67625;-62
2024/03/28 01:40:43;;;;;;;;;3.50;2.50;;;;;10.08;72.11;97470.09;5045617;28;68990;-62
2024/03/28 01:43:08;;;;;;;;;3.00;3.00;;;;;10.05;72.21;97483.38;5047568;28;71847;-63
2024/03/28 01:45:34;;;;;;;;;0.00;0.00;;;;;10.09;72.23;97489.22;5056938;28;75942;-63
2024/03/28 01:48:00;;;;;;;;;5.00;2.00;;;;;10.07;72.02;97484.13;5057535;28;45514;-63
2024/03/28 01:50:27;;;;;;;;;1.00;1.00;;;;;10.08;72.42;97491.00;5047058;28;45202;-62
2024/03/28 01:52:52;;;;;;;;;1.00;1.00;;;;;10.07;72.12;97486.75;5044510;28;45473;-62
2024/03/28 01:55:18;;;;;;;;;1.75;1.75;;;;;10.07;72.51;97499.81;5055184;28;66387;-62
2024/03/28 01:57:44;;;;;;;;;1.00;1.00;;;;;10.08;72.75;97504.06;5049608;28;45431;-62
2024/03/28 02:00:11;;;;;;;;;1.25;1.00;;;;;10.08;72.31;97500.63;5057923;28;46321;-61
2024/03/28 02:02:37;;;;;;;;;2.00;1.00;;;;;10.07;72.77;97488.50;5056023;28;47003;-62
2024/03/28 02:05:04;;;;;;;;;1.00;1.00;;;;;10.03;73.01;97487.91;5057640;28;60723;-62
2024/03/28 02:07:29;;;;;;;;;2.00;2.00;;;;;10.00;73.08;97484.69;5059799;28;68068;-62
2024/03/28 02:09:54;;;;;;;;;2.00;2.00;;;;;9.95;73.21;97492.91;5060379;28;53140;-62
2024/03/28 02:12:20;;;;;;;;;1.00;1.00;;;;;9.94;73.35;97490.41;5048203;28;68102;-61
2024/03/28 02:14:45;;;;;;;;;1.00;1.00;;;;;9.91;73.52;97477.56;5051954;28;70230;-59
2024/03/28 02:17:12;;;;;;;;;2.00;1.50;;;;;9.92;73.55;97484.47;5043880;28;68155;-61
2024/03/28 02:19:37;;;;;;;;;1.00;1.00;;;;;9.92;73.23;97481.88;5057657;28;45438;-61
2024/03/28 02:22:02;;;;;;;;;1.00;1.00;;;;;9.86;73.84;97481.38;5043044;28;58124;-62
2024/03/28 02:24:29;;;;;;;;;1.00;1.00;;;;;9.86;73.61;97484.00;5053679;28;45466;-61
2024/03/28 02:26:55;;;;;;;;;1.00;1.00;;;;;9.84;74.01;97488.50;5057376;28;45360;-61
2024/03/28 02:29:20;;;;;;;;;1.00;1.00;;;;;9.84;74.12;97487.66;5054079;28;45355;-62
2024/03/28 02:31:46;;;;;;;;;3.75;1.00;;;;;9.84;74.29;97485.91;5061047;27;45384;-62
2024/03/28 02:34:11;;;;;;;;;1.00;1.00;;;;;9.84;74.28;97485.91;5069355;28;64828;-62
2024/03/28 02:36:36;;;;;;;;;1.75;1.00;;;;;9.83;74.76;97486.00;5054382;28;60560;-62
2024/03/28 02:39:02;;;;;;;;;0.00;0.00;;;;;9.82;74.46;97482.53;5058375;28;62977;-62
2024/03/28 02:41:27;;;;;;;;;0.00;0.00;;;;;9.84;75.06;97493.72;5052454;28;45442;-62
2024/03/28 02:43:53;;;;;;;;;1.00;1.00;;;;;9.87;74.70;97488.25;5050585;28;64267;-61
2024/03/28 02:46:18;;;;;;;;;1.00;1.00;;;;;9.88;75.07;97494.31;5052281;28;45407;-62
2024/03/28 02:48:44;;;;;;;;;1.00;0.00;;;;;9.88;75.05;97483.88;5054347;28;67551;-62
2024/03/28 02:51:09;;;;;;;;;0.00;0.00;;;;;9.93;75.24;97496.56;5054616;28;71751;-62
2024/03/28 02:53:34;;;;;;;;;3.00;0.50;;;;;9.95;75.05;97497.28;5047039;28;76923;-62
2024/03/28 02:56:00;;;;;;;;;0.00;0.00;;;;;9.93;77.46;97509.63;5049507;28;62060;-63
2024/03/28 02:58:25;;;;;;;;;0.25;0.00;;;;;9.91;77.97;97508.91;5041659;28;51779;-63
2024/03/28 03:00:51;;;;;;;;;1.00;1.00;;;;;9.91;78.28;97491.47;5055437;28;63677;-64
2024/03/28 03:03:16;;;;;;;;;0.00;0.00;;;;;9.85;77.69;97497.16;5070313;28;47178;-63
2024/03/28 03:05:42;;;;;;;;;2.00;1.00;;;;;9.73;84.52;97509.34;5051611;28;67292;-61
2024/03/28 03:08:07;;;;;;;;;0.50;0.00;;;;;9.70;79.48;97504.34;5058267;28;67708;-63
2024/03/28 03:10:32;;;;;;;;;0.00;0.00;;;;;9.63;79.38;97503.16;5058508;28;45465;-62
2024/03/28 03:12:58;;;;;;;;;0.00;0.00;;;;;9.64;78.31;97502.22;5058488;28;72900;-63
2024/03/28 03:15:24;;;;;;;;;0.00;0.00;;;;;9.61;77.89;97505.06;5059671;28;45261;-64
2024/03/28 03:17:49;;;;;;;;;0.00;0.00;;;;;9.62;77.82;97498.91;5051240;28;45470;-62
2024/03/28 03:20:15;;;;;;;;;0.00;0.00;;;;;9.62;77.63;97504.13;5049704;28;72018;-63
2024/03/28 03:22:48;;;;;;;;;0.00;0.00;;;;;9.63;77.30;97496.19;5057796;28;47746;-62
2024/03/28 03:25:24;;;;;;;;;0.25;0.00;;;;;9.61;77.32;97508.50;5047565;28;45614;-61
2024/03/28 03:36:03;;;;;;;;;4.00;0.75;;;;;9.55;75.05;97536.84;5045515;28;45706;-62
2024/03/28 03:38:29;;;;;;;;;0.00;0.00;;;;;9.50;74.80;97548.44;5053259;28;45351;-63
2024/03/28 03:40:54;;;;;;;;;0.00;0.00;;;;;9.49;74.52;97548.56;5054760;28;60591;-62
2024/03/28 03:43:19;;;;;;;;;1.00;0.00;;;;;9.48;74.68;97558.19;5058507;28;45562;-61
2024/03/28 03:45:45;;;;;;;;;0.00;0.00;;;;;9.49;74.69;97559.84;5048510;28;73176;-62
2024/03/28 03:48:10;;;;;;;;;0.00;0.00;;;;;9.46;74.27;97567.91;5058557;28;55670;-61
2024/03/28 03:50:35;;;;;;;;;0.00;0.00;;;;;9.45;74.36;97563.63;5049316;28;73685;-62
2024/03/28 03:53:01;;;;;;;;;0.00;0.00;;;;;9.44;74.42;97569.81;5055767;28;77695;-61
2024/03/28 03:55:26;;;;;;;;;0.50;0.50;;;;;9.45;74.41;97568.84;5055629;28;74338;-61
2024/03/28 03:57:51;;;;;;;;;0.00;0.00;;;;;9.43;74.09;97569.91;5052004;28;45764;-62
2024/03/28 04:00:17;;;;;;;;;1.00;0.00;;;;;9.41;73.81;97574.41;5052935;28;64633;-61
2024/03/28 04:02:42;;;;;;;;;1.00;0.00;;;;;9.36;74.22;97581.75;5056199;27;45499;-60
2024/03/28 04:05:08;;;;;;;;;0.00;0.00;;;;;9.34;73.99;97600.13;5056523;28;58750;-61
2024/03/28 04:07:33;;;;;;;;;0.00;0.00;;;;;9.29;73.78;97610.03;5058968;28;45279;-61
2024/03/28 04:09:59;;;;;;;;;1.00;0.00;;;;;9.24;74.06;97623.44;5056437;28;45434;-62
2024/03/28 04:12:24;;;;;;;;;0.00;0.00;;;;;9.20;74.36;97636.81;5052587;28;76055;-61
2024/03/28 04:14:50;;;;;;;;;0.00;0.00;;;;;9.15;73.93;97642.34;5042811;28;60115;-61
2024/03/28 04:17:15;;;;;;;;;0.00;0.00;;;;;9.04;74.41;97645.72;5058125;28;45529;-61
2024/03/28 04:19:41;;;;;;;;;0.75;0.00;;;;;9.01;74.75;97661.59;5056584;28;45610;-61
2024/03/28 04:22:06;;;;;;;;;1.00;0.00;;;;;9.04;74.58;97676.19;5056928;28;51512;-61
2024/03/28 04:24:31;;;;;;;;;0.00;0.00;;;;;9.04;74.94;97691.84;5053653;28;71346;-62
2024/03/28 04:26:57;;;;;;;;;0.00;0.00;;;;;9.08;74.73;97703.72;5050954;28;62366;-61
2024/03/28 04:29:22;;;;;;;;;0.00;0.00;;;;;9.10;74.85;97704.44;5037103;28;46100;-61
2024/03/28 04:31:47;;;;;;;;;0.00;0.00;;;;;9.08;74.38;97714.16;5054626;28;61974;-62
2024/03/28 04:34:13;;;;;;;;;0.00;0.00;;;;;9.10;74.16;97725.31;5041412;28;72274;-61
2024/03/28 04:36:38;;;;;;;;;0.00;0.00;;;;;9.09;74.20;97740.13;5059020;28;45724;-61
2024/03/28 04:39:04;;;;;;;;;0.00;0.00;;;;;9.05;73.53;97743.06;5059162;28;45368;-61
2024/03/28 04:41:29;;;;;;;;;0.00;0.00;;;;;8.98;73.56;97736.59;5053844;28;45629;-63
2024/03/28 04:43:54;;;;;;;;;0.00;0.00;;;;;8.91;73.08;97738.81;5044953;28;67311;-63
2024/03/28 04:46:20;;;;;;;;;0.00;0.00;;;;;8.81;72.32;97749.00;5047497;28;52474;-63
2024/03/28 04:48:46;;;;;;;;;1.00;0.00;;;;;8.72;72.25;97750.47;5045997;28;45422;-62
2024/03/28 04:51:11;;;;;;;;;0.00;0.00;;;;;8.67;71.46;97760.38;5044558;28;72683;-62
2024/03/28 04:53:36;;;;;;;;;0.00;0.00;;;;;8.61;71.55;97762.56;5058100;28;63559;-62
2024/03/28 04:56:02;;;;;;;;;0.00;0.00;;;;;8.55;71.29;97772.47;5056712;28;57620;-62
2024/03/28 04:58:27;;;;;;;;;0.00;0.00;;;;;8.52;71.12;97774.44;5057685;28;45585;-62
2024/03/28 05:00:52;;;;;;;;;0.00;0.00;;;;;8.48;70.87;97783.38;5051354;28;75538;-62
2024/03/28 05:03:17;;;;;;;;;0.00;0.00;;;;;8.44;71.05;97798.38;5049435;28;73416;-62
2024/03/28 05:05:43;;;;;;;;;0.00;0.00;;;;;8.41;70.72;97800.31;5046103;28;68052;-61
2024/03/28 05:08:09;;;;;;;;;0.00;0.00;;;;;8.35;70.64;97804.16;5043200;28;45602;-62
2024/03/28 05:10:37;;;;;;;;;0.00;0.00;;;;;8.30;70.77;97809.66;5050919;28;48083;-62
2024/03/28 05:13:02;;;;;;;;;0.00;0.00;;;;;8.28;70.48;97810.72;5058068;28;45833;-62
2024/03/28 05:15:28;;;;;;;;;3.00;0.00;;;;;8.26;70.04;97813.41;5042871;28;45304;-62
2024/03/28 05:17:53;;;;;;;;;0.00;0.00;;;;;8.25;70.37;97827.41;5051235;28;63627;-61
2024/03/28 05:20:18;;;;;;;;;0.75;0.00;;;;;8.28;70.55;97823.75;5052059;28;46351;-61
2024/03/28 05:22:44;;;;;;;;;0.00;0.00;;;;;8.26;70.35;97830.81;5054113;28;73231;-61
2024/03/28 05:25:09;;;;;;;;;1.00;0.00;;;;;8.35;70.51;97838.88;5055059;28;65426;-61
2024/03/28 05:27:34;;;;;;;;;0.00;0.00;;;;;8.40;70.36;97842.97;5056911;28;54970;-62
2024/03/28 05:30:03;;;;;;;;;0.00;0.00;;;;;8.43;70.23;97853.19;5046603;28;72922;-62
2024/03/28 05:32:29;;;;;;;;;1.00;0.00;;;;;8.48;69.94;97854.59;5049455;28;45385;-63
2024/03/28 05:34:54;;;;;;;;;0.75;0.00;;;;;8.50;69.75;97867.53;5052729;28;64369;-61
2024/03/28 05:37:19;;;;;;;;;1.00;0.00;;;;;8.53;69.65;97870.78;5058342;28;45241;-62
2024/03/28 05:39:45;;;;;;;;;0.00;0.00;;;;;8.56;69.44;97877.56;5042937;28;74330;-63
2024/03/28 05:42:10;;;;;;;;;0.00;0.00;;;;;8.54;69.38;97885.47;5046254;28;70183;-61
2024/03/28 05:44:35;;;;;;;;;0.00;0.00;;;;;8.54;69.58;97882.84;5055268;28;69332;-59
2024/03/28 05:47:00;;;;;;;;;0.00;0.00;;;;;8.57;69.54;97889.66;5054357;28;65160;-61
2024/03/28 05:49:26;;;;;;;;;3.00;0.00;;;;;8.59;69.58;97884.31;5072079;28;61116;-62
2024/03/28 05:51:51;;;;;;;;;0.50;0.00;;;;;8.60;69.08;97878.19;5048512;28;72096;-61
2024/03/28 05:54:16;;;;;;;;;0.00;0.00;;;;;8.61;69.14;97885.09;5047773;28;63739;-62
2024/03/28 05:56:42;;;;;;;;;0.00;0.00;;;;;8.59;69.41;97892.13;5042274;28;73066;-62
2024/03/28 05:59:07;;;;;;;;;0.00;0.00;;;;;8.59;69.95;97879.09;5048311;28;74537;-62
2024/03/28 06:01:32;;;;;;;;;0.00;0.00;;;;;8.60;69.79;97880.78;5051755;28;71269;-62
2024/03/28 06:03:58;;;;;;;;;0.00;0.00;;;;;8.63;69.99;97884.03;5048915;28;63189;-63
2024/03/28 06:06:24;;;;;;;;;0.00;0.00;;;;;8.67;69.85;97884.66;5044305;28;45533;-62
2024/03/28 06:08:49;;;;;;;;;0.00;0.00;;;;;8.72;70.06;97890.41;5059301;28;45980;-62
2024/03/28 06:11:15;;;;;;;;;0.00;0.00;;;;;8.79;69.81;97891.69;5056134;27;45442;-62
2024/03/28 06:13:40;;;;;;;;;0.00;0.00;;;;;8.84;69.77;97884.41;5056648;28;67214;-62
2024/03/28 06:16:05;;;;;;;;;0.00;0.00;;;;;8.90;69.73;97893.59;5056808;28;73164;-62
2024/03/28 06:18:32;;;;;;;;;1.00;0.00;;;;;8.92;70.07;97899.53;5056498;28;59732;-62
2024/03/28 06:21:05;;;;;;;;;0.00;0.00;;;;;8.92;70.13;97900.41;5057669;28;45820;-62
2024/03/28 06:23:31;;;;;;;;;0.00;0.00;;;;;8.90;70.51;97910.06;5058846;28;45300;-61
2024/03/28 06:26:00;;;;;;;;;0.00;0.00;;;;;8.91;70.90;97903.94;5058318;28;45316;-62
2024/03/28 06:28:26;;;;;;;;;0.00;0.00;;;;;8.92;70.84;97917.78;5055615;28;45332;-62
2024/03/28 06:30:56;;;;;;;;;0.00;0.00;;;;;8.93;70.65;97919.47;5048706;27;45423;-62
2024/03/28 06:33:25;;;;;;;;;1.75;0.00;;;;;8.93;71.33;97930.75;5054354;28;45501;-62
2024/03/28 06:35:50;;;;;;;;;0.00;0.00;;;;;8.93;71.21;97940.34;5055438;28;45398;-60
2024/03/28 06:38:17;;;;;;;;;0.75;0.00;;;;;8.90;71.25;97927.50;5054597;28;50937;-61
2024/03/28 06:40:43;;;;;;;;;0.75;0.00;;;;;8.91;71.45;97932.63;5047889;28;45371;-59
2024/03/28 06:43:08;;;;;;;;;0.00;0.00;;;;;8.93;71.42;97932.53;5054221;28;45532;-58
2024/03/28 06:45:33;;;;;;;;;22.50;17.75;;;;;8.98;71.28;97933.06;5049883;28;61212;-56
2024/03/28 06:47:59;;;;;;;;;18.50;17.00;;;;;9.01;71.33;97938.09;5039315;28;73132;-59
2024/03/28 06:50:24;;;;;;;;;0.00;0.00;;;;;9.00;70.62;97946.84;5053032;28;68483;-59
2024/03/28 06:52:51;;;;;;;;;0.00;0.00;;;;;8.95;71.08;97959.34;5053584;28;45592;-60
2024/03/28 06:55:16;;;;;;;;;1.00;0.00;;;;;8.91;70.62;97966.53;5054818;28;45566;-58
2024/03/28 06:57:42;;;;;;;;;0.50;0.00;;;;;8.86;70.57;97973.81;5060286;28;46199;-61
2024/03/28 07:00:09;;;;;;;;;0.00;0.00;;;;;8.85;70.57;97984.31;5054100;28;65667;-59
2024/03/28 07:02:34;;;;;;;;;0.00;0.00;;;;;8.85;70.56;97979.13;5052516;28;45451;-55
2024/03/28 07:05:00;;;;;;;;;0.50;0.00;;;;;8.88;70.73;97989.34;5058380;27;46022;-58
2024/03/28 07:07:25;;;;;;;;;2.00;0.00;;;;;8.92;70.54;97991.69;5042927;28;56947;-56
2024/03/28 07:09:50;;;;;;;;;0.00;0.00;;;;;8.97;70.43;98000.97;5058473;28;72686;-57
2024/03/28 07:12:16;;;;;;;;;0.00;0.00;;;;;9.02;70.05;97998.91;5054811;28;68192;-57
2024/03/28 07:14:41;;;;;;;;;1.25;0.00;;;;;9.09;69.95;98016.66;5059593;28;74459;-55
2024/03/28 07:17:06;;;;;;;;;0.75;0.00;;;;;9.13;69.73;98015.50;5056409;28;45365;-57
2024/03/28 07:19:32;;;;;;;;;0.25;0.00;;;;;9.19;69.75;98027.34;5060913;28;45276;-57
2024/03/28 07:21:57;;;;;;;;;0.00;0.00;;;;;9.25;69.22;98023.50;5063478;27;45331;-57
2024/03/28 07:24:22;;;;;;;;;0.25;0.00;;;;;9.27;68.89;98039.88;5059731;28;73136;-53
2024/03/28 07:26:47;;;;;;;;;0.00;0.00;;;;;9.30;69.14;98043.13;5056106;28;75666;-55
2024/03/28 07:29:13;;;;;;;;;0.00;0.00;;;;;9.36;69.01;98044.50;5058152;28;68208;-53
2024/03/28 07:31:39;;;;;;;;;0.00;0.00;;;;;9.36;68.37;98039.28;5058462;28;45780;-53
2024/03/28 07:34:04;;;;;;;;;1.50;1.00;;;;;9.36;68.86;98044.50;5059296;28;49574;-55
2024/03/28 07:36:30;;;;;;;;;0.00;0.00;;;;;9.40;68.54;98048.59;5060299;28;46134;-53
2024/03/28 07:38:56;;;;;;;;;0.00;0.00;;;;;9.46;68.46;98049.97;5057501;28;45846;-55
2024/03/28 07:41:21;;;;;;;;;1.50;0.00;;;;;9.52;68.29;98064.38;5056597;28;46201;-54
2024/03/28 07:43:46;;;;;;;;;0.00;0.00;;;;;9.56;67.86;98074.53;5052310;28;48546;-55
2024/03/28 07:46:12;;;;;;;;;1.00;0.00;;;;;9.60;67.37;98072.56;5058648;28;63777;-54
2024/03/28 07:48:37;;;;;;;;;0.75;0.00;;;;;9.55;66.64;98065.03;5058740;28;68391;-53
2024/03/28 07:51:03;;;;;;;;;0.00;0.00;;;;;9.48;67.17;98069.81;5058135;28;45456;-56
2024/03/28 07:53:29;;;;;;;;;0.25;0.00;;;;;9.48;66.93;98075.03;5070249;27;45989;-56
2024/03/28 07:55:55;;;;;;;;;0.00;0.00;;;;;9.53;67.02;98061.69;5054968;28;46435;-55
2024/03/28 07:58:21;;;;;;;;;0.00;0.00;;;;;9.55;66.86;98072.84;5051541;28;45340;-53
2024/03/28 08:00:46;;;;;;;;;1.00;0.00;;;;;9.55;66.83;98077.25;5051575;28;45596;-50
2024/03/28 08:03:16;;;;;;;;;2.00;0.00;;;;;9.58;66.48;98084.84;5047570;28;71914;-55
2024/03/28 08:05:46;;;;;;;;;1.00;0.00;;;;;9.63;65.93;98088.00;5042253;28;46295;-56
2024/03/28 08:08:12;;;;;;;;;2.00;0.00;;;;;9.63;65.67;98085.41;5059281;28;45268;-56
2024/03/28 08:10:37;;;;;;;;;0.00;0.00;;;;;9.65;66.05;98089.59;5050820;28;45241;-56
2024/03/28 08:13:03;;;;;;;;;0.00;0.00;;;;;9.73;65.76;98094.31;5046865;28;45483;-55
2024/03/28 08:15:30;;;;;;;;;0.00;0.00;;;;;9.79;65.82;98090.44;5042200;28;47584;-53
2024/03/28 08:17:55;;;;;;;;;0.00;0.00;;;;;9.83;65.66;98082.31;5058368;28;45870;-56
2024/03/28 08:20:20;;;;;;;;;0.00;0.00;;;;;9.84;65.23;98102.28;5058601;28;66867;-56
2024/03/28 08:22:47;;;;;;;;;0.00;0.00;;;;;9.88;65.07;98095.91;5057748;28;46021;-55
2024/03/28 08:25:12;;;;;;;;;0.00;0.00;;;;;9.93;65.22;98098.19;5039541;28;46276;-56
2024/03/28 08:27:38;;;;;;;;;0.75;0.00;;;;;9.98;65.04;98111.78;5039509;28;45253;-55
2024/03/28 08:30:05;;;;;;;;;1.75;0.00;;;;;10.07;64.39;98115.56;5040742;28;45357;-55
2024/03/28 08:32:31;;;;;;;;;1.00;0.00;;;;;10.17;64.25;98126.25;5052120;28;45517;-57
2024/03/28 08:34:57;;;;;;;;;0.00;0.00;;;;;10.24;64.07;98130.94;5042430;28;46007;-53
2024/03/28 08:37:23;;;;;;;;;0.00;0.00;;;;;10.37;64.11;98140.63;5055012;28;45350;-54
2024/03/28 08:39:49;;;;;;;;;1.75;0.00;;;;;10.48;63.78;98134.66;5057328;28;45364;-54
2024/03/28 08:42:14;;;;;;;;;1.00;0.00;;;;;10.59;63.51;98153.06;5055028;28;45708;-56
2024/03/28 08:44:39;;;;;;;;;0.00;0.00;;;;;10.67;62.93;98155.16;5039052;28;75793;-53
2024/03/28 08:47:05;;;;;;;;;0.00;0.00;;;;;10.72;62.27;98166.97;5045286;28;56066;-56
2024/03/28 08:49:30;;;;;;;;;0.00;0.00;;;;;10.77;62.57;98162.25;5059933;28;58954;-56
2024/03/28 08:51:56;;;;;;;;;0.00;0.00;;;;;10.90;62.54;98170.09;5058881;28;56941;-55
2024/03/28 08:54:24;;;;;;;;;0.00;0.00;;;;;11.08;62.13;98174.97;5076288;28;47454;-56
2024/03/28 08:56:49;;;;;;;;;0.00;0.00;;;;;11.14;61.23;98164.09;5061053;27;45865;-54
2024/03/28 08:59:14;;;;;;;;;1.25;0.00;;;;;11.22;61.56;98182.69;5059595;28;45374;-56
2024/03/28 09:01:40;;;;;;;;;1.50;0.00;;;;;11.31;61.66;98168.94;5060099;28;45272;-56
2024/03/28 09:04:07;;;;;;;;;0.00;0.00;;;;;11.42;61.31;98188.28;5060457;28;46087;-56
2024/03/28 09:06:32;;;;;;;;;0.00;0.00;;;;;11.49;60.73;98173.81;5050944;28;45743;-52
2024/03/28 09:08:58;;;;;;;;;0.00;0.00;;;;;11.48;60.51;98183.47;5059626;28;45394;-56
2024/03/28 09:11:25;;;;;;;;;0.50;0.00;;;;;11.48;60.46;98187.88;5037817;28;45335;-54
2024/03/28 09:13:51;;;;;;;;;0.00;0.00;;;;;11.55;60.59;98195.16;5022238;28;47325;-55
2024/03/28 09:16:16;;;;;;;;;0.75;0.00;;;;;11.61;59.44;98196.50;5048322;28;45558;-55
2024/03/28 09:18:42;;;;;;;;;0.00;0.00;;;;;11.68;59.36;98191.66;5057409;28;45421;-55
2024/03/28 09:21:11;;;;;;;;;0.00;0.00;;;;;11.81;59.23;98199.47;5040602;28;62279;-56
2024/03/28 09:23:37;;;;;;;;;0.00;0.00;;;;;11.81;59.18;98215.19;5049252;28;46496;-56
2024/03/28 09:26:02;;;;;;;;;0.25;0.00;;;;;11.77;58.81;98207.56;5049355;28;45510;-55
2024/03/28 09:28:28;;;;;;;;;0.00;0.00;;;;;11.80;58.80;98224.00;5058295;28;45367;-55
2024/03/28 09:30:54;;;;;;;;;1.00;0.00;;;;;11.83;59.39;98215.91;5056988;28;69765;-55
2024/03/28 09:33:19;;;;;;;;;0.00;0.00;;;;;11.92;59.16;98200.41;5045937;28;45297;-53
2024/03/28 09:35:46;;;;;;;;;0.00;0.00;;;;;11.94;57.91;98205.53;5044199;28;45548;-56
2024/03/28 09:38:12;;;;;;;;;0.00;0.00;;;;;11.85;58.27;98199.13;5027791;28;45709;-56
2024/03/28 09:40:49;;;;;;;;;2.75;0.00;;;;;11.95;58.24;98204.56;5042073;28;45809;-56
2024/03/28 09:43:14;;;;;;;;;0.00;0.00;;;;;12.05;57.39;98200.31;5038212;28;46224;-56
2024/03/28 09:45:40;;;;;;;;;0.00;0.00;;;;;12.22;57.91;98206.13;5043801;28;73091;-54
2024/03/28 09:48:05;;;;;;;;;1.25;0.75;;;;;12.31;57.60;98208.06;5044488;28;66006;-53
2024/03/28 09:50:34;;;;;;;;;36.75;27.00;;;;;12.42;57.44;98220.34;5056209;28;45318;-55
2024/03/28 09:52:59;;;;;;;;;6.00;4.50;;;;;12.51;56.77;98235.41;5040975;28;51616;-52
2024/03/28 09:55:25;;;;;;;;;0.00;0.00;;;;;12.51;56.46;98233.59;5052488;28;71498;-55
2024/03/28 09:57:50;;;;;;;;;0.00;0.00;;;;;12.51;56.51;98233.59;5051023;28;45398;-58
2024/03/28 10:00:16;;;;;;;;;0.00;0.00;;;;;12.52;56.11;98237.09;5050396;28;73203;-54
2024/03/28 10:02:51;;;;;;;;;1.00;0.00;;;;;12.52;56.25;98237.09;5052324;28;52086;-53
2024/03/28 10:05:17;;;;;;;;;1.00;0.75;;;;;12.60;56.36;98241.75;5054318;28;45937;-53
2024/03/28 10:07:42;;;;;;;;;0.50;0.00;;;;;12.73;55.98;98243.31;5045428;28;45332;-55
2024/03/28 10:10:12;;;;;;;;;1.00;0.00;;;;;12.83;55.68;98251.31;5049677;28;73220;-54
2024/03/28 10:12:38;;;;;;;;;0.00;0.00;;;;;12.91;55.64;98251.59;5039320;28;46181;-50
2024/03/28 10:15:04;;;;;;;;;0.00;0.00;;;;;12.99;55.34;98261.47;5043255;28;45353;-52
2024/03/28 10:17:30;;;;;;;;;1.00;0.00;;;;;13.05;55.23;98255.78;5043275;28;45326;-52
2024/03/28 10:20:03;;;;;;;;;1.00;0.00;;;;;13.08;54.87;98252.94;5057826;28;45439;-54
2024/03/28 10:22:31;;;;;;;;;2.00;0.00;;;;;13.08;55.30;98252.06;5055781;28;45389;-53
2024/03/28 10:24:58;;;;;;;;;1.00;0.75;;;;;13.07;55.24;98258.28;5039024;28;45765;-56
2024/03/28 10:27:23;;;;;;;;;2.00;0.00;;;;;13.07;54.70;98261.75;5043014;28;45339;-56
2024/03/28 10:29:53;;;;;;;;;1.25;0.00;;;;;12.99;54.34;98258.03;5041552;28;64750;-56
2024/03/28 10:32:18;;;;;;;;;1.00;0.00;;;;;12.90;54.47;98257.78;5047506;28;47132;-55
2024/03/28 10:34:51;;;;;;;;;2.00;0.00;;;;;12.87;54.68;98259.78;5041979;28;66556;-55
2024/03/28 10:37:20;;;;;;;;;0.75;0.00;;;;;12.88;54.28;98270.19;5053763;28;46264;-54
2024/03/28 10:39:46;;;;;;;;;0.00;0.00;;;;;12.86;54.01;98268.63;5054662;28;47778;-56
2024/03/28 10:42:13;;;;;;;;;1.50;0.00;;;;;12.95;54.00;98281.06;5055381;28;46291;-56
2024/03/28 10:44:40;;;;;;;;;1.50;0.00;;;;;13.11;54.05;98272.84;5042414;28;45815;-54
2024/03/28 10:47:07;;;;;;;;;0.00;0.00;;;;;13.16;53.82;98275.13;5052006;28;45454;-56
2024/03/28 10:49:40;;;;;;;;;2.00;0.00;;;;;13.15;53.85;98269.00;5054902;28;45305;-56
2024/03/28 10:52:07;;;;;;;;;1.00;0.00;;;;;13.01;53.59;98275.31;5062413;28;50132;-53
2024/03/28 10:54:41;;;;;;;;;2.00;0.00;;;;;12.79;53.25;98268.25;5062769;28;45889;-55
2024/03/28 10:57:08;;;;;;;;;0.50;0.00;;;;;12.67;53.46;98275.25;5053822;28;45308;-55
2024/03/28 10:59:34;;;;;;;;;2.50;0.00;;;;;12.64;53.12;98282.53;5058085;28;72143;-52
2024/03/28 11:01:59;;;;;;;;;2.00;0.25;;;;;12.76;53.56;98299.16;5042143;28;46789;-56
2024/03/28 11:04:25;;;;;;;;;4.50;0.00;;;;;12.76;52.94;98299.97;5040931;28;45377;-55
2024/03/28 11:06:51;;;;;;;;;0.50;0.00;;;;;12.83;53.34;98295.13;5053415;28;68638;-53
2024/03/28 11:09:17;;;;;;;;;1.00;0.00;;;;;12.88;52.78;98303.47;5055456;28;45447;-57
2024/03/28 11:11:44;;;;;;;;;1.50;0.00;;;;;12.92;53.13;98299.66;5042005;28;45391;-53
2024/03/28 11:14:09;;;;;;;;;0.00;0.00;;;;;12.91;52.87;98290.97;5042487;28;45849;-55
2024/03/28 11:16:35;;;;;;;;;0.50;0.50;;;;;12.89;52.89;98302.50;5045958;28;68288;-53
2024/03/28 11:19:01;;;;;;;;;0.50;0.00;;;;;12.99;53.09;98297.41;5048697;28;45498;-56
2024/03/28 11:21:32;;;;;;;;;3.00;0.75;;;;;13.19;52.00;98309.00;5061917;28;46507;-54
2024/03/28 11:23:58;;;;;;;;;1.00;0.00;;;;;13.36;51.94;98307.75;5059985;28;45303;-55
2024/03/28 11:26:24;;;;;;;;;3.25;0.00;;;;;13.47;51.65;98295.47;5044996;28;45337;-56
2024/03/28 11:29:04;;;;;;;;;0.00;0.00;;;;;13.50;51.39;98312.75;5061867;28;45275;-54
2024/03/28 11:31:30;;;;;;;;;1.50;0.00;;;;;13.54;51.62;98323.88;5061127;28;45415;-55
2024/03/28 11:34:04;;;;;;;;;2.50;0.50;;;;;13.57;51.18;98307.88;5044272;28;45278;-54
2024/03/28 11:36:30;;;;;;;;;0.00;0.00;;;;;13.61;51.04;98318.00;5041662;28;45492;-55
2024/03/28 11:38:56;;;;;;;;;1.25;0.00;;;;;13.63;50.92;98320.53;5045865;28;45415;-55